createdAt,value
2022-10-17T04:32:33.251Z,4.68
2022-10-17T04:38:02.560Z,6.30
2022-10-17T04:43:23.820Z,5.40
2022-10-17T04:48:46.002Z,5.53
2022-10-17T04:54:06.906Z,5.68
2022-10-17T04:59:29.127Z,5.65
2022-10-17T05:05:05.519Z,6.35
2022-10-17T05:10:26.460Z,6.25
2022-10-17T05:15:48.871Z,6.55
2022-10-17T05:21:10.224Z,6.50
2022-10-17T05:26:32.481Z,7.10
2022-10-17T05:31:53.494Z,7.72
2022-10-17T05:37:14.778Z,7.28
2022-10-17T05:48:06.635Z,8.07
2022-10-17T05:53:31.658Z,8.05
2022-10-17T05:59:00.726Z,8.00
2022-10-17T06:04:49.282Z,8.25
2022-10-17T06:10:15.058Z,9.93
2022-10-17T06:15:36.361Z,9.90
2022-10-17T06:21:12.144Z,9.85
2022-10-17T06:26:38.401Z,10.13
2022-10-17T06:32:01.270Z,10.73
2022-10-17T06:37:22.492Z,10.23
2022-10-17T06:42:43.878Z,11.20
2022-10-17T06:48:18.655Z,11.32
2022-10-17T06:54:03.167Z,11.13
2022-10-17T06:59:41.901Z,11.60
2022-10-17T07:05:06.554Z,11.25
2022-10-17T07:10:28.977Z,12.18
2022-10-17T07:21:11.634Z,10.25
2022-10-17T07:26:34.641Z,9.45
2022-10-17T07:31:55.985Z,10.38
2022-10-17T07:37:17.248Z,9.40
2022-10-17T07:42:44.498Z,8.50
2022-10-17T07:48:06.535Z,9.07
2022-10-17T07:53:27.750Z,8.18
2022-10-17T07:58:48.736Z,8.43
2022-10-17T08:04:09.441Z,8.07
2022-10-17T08:09:30.280Z,7.47
2022-10-17T08:14:51.086Z,5.20
2022-10-17T08:20:12.442Z,5.97
2022-10-17T08:25:33.463Z,4.43
2022-10-17T08:31:02.479Z,4.32
2022-10-17T08:36:23.494Z,3.88
2022-10-17T08:41:52.227Z,4.03
2022-10-17T08:47:19.722Z,3.58
2022-10-17T08:52:49.383Z,3.33
2022-10-17T09:04:27.001Z,3.95
2022-10-17T09:09:56.707Z,3.63
2022-10-17T09:15:51.235Z,3.33
2022-10-17T09:21:28.916Z,3.90
2022-10-17T09:26:51.264Z,3.88
2022-10-17T09:32:17.361Z,3.72
2022-10-17T09:37:38.370Z,3.83
2022-10-17T09:43:01.598Z,3.45
2022-10-17T09:48:35.997Z,3.53
2022-10-17T09:54:01.711Z,3.63
2022-10-17T09:59:56.411Z,4.00
2022-10-17T10:05:21.752Z,3.63
2022-10-17T10:10:44.174Z,4.05
2022-10-17T10:16:31.533Z,3.80
2022-10-17T10:21:58.232Z,3.80
2022-10-17T10:27:29.290Z,4.00
2022-10-17T10:32:50.246Z,4.10
2022-10-17T10:38:17.479Z,5.43
2022-10-17T10:43:43.733Z,3.40
2022-10-17T10:49:24.624Z,4.45
2022-10-17T10:55:02.272Z,4.40
2022-10-17T11:00:26.539Z,3.70
2022-10-17T11:05:56.259Z,4.15
2022-10-17T11:11:33.562Z,3.77
2022-10-17T11:17:18.186Z,4.78
2022-10-17T11:22:44.353Z,4.50
2022-10-17T11:28:14.373Z,3.72
2022-10-17T11:33:50.580Z,3.80
2022-10-17T11:39:29.677Z,3.50
2022-10-17T11:44:54.509Z,4.07
2022-10-17T11:56:26.093Z,3.70
2022-10-17T12:02:03.881Z,3.72
2022-10-17T12:07:40.603Z,4.00
2022-10-17T12:13:29.829Z,3.92
2022-10-17T12:19:10.801Z,3.80
2022-10-17T12:24:44.024Z,4.00
2022-10-17T12:30:07.098Z,3.80
2022-10-17T12:35:30.202Z,4.07
2022-10-17T12:40:57.046Z,4.28
2022-10-17T12:47:00.310Z,4.00
2022-10-17T12:52:31.507Z,4.45
2022-10-17T12:57:52.465Z,5.13
2022-10-17T13:03:17.575Z,11.93
2022-10-17T13:08:44.783Z,4.47
2022-10-17T13:14:12.915Z,4.10
2022-10-17T13:19:45.460Z,5.18
2022-10-17T13:25:16.185Z,4.75
2022-10-17T13:30:37.340Z,4.40
2022-10-17T13:36:00.790Z,4.30
2022-10-17T13:41:37.077Z,4.75
2022-10-17T13:46:58.395Z,4.97
2022-10-17T13:52:22.256Z,5.15
2022-10-17T13:57:43.098Z,5.57
2022-10-17T14:03:04.683Z,5.55
2022-10-17T14:08:25.957Z,6.05
2022-10-17T14:13:50.701Z,6.03
2022-10-17T14:19:33.215Z,5.30
2022-10-17T14:24:55.763Z,5.82
2022-10-17T14:30:58.339Z,5.57
2022-10-17T14:36:21.388Z,6.80
2022-10-17T14:41:45.573Z,6.18
2022-10-17T14:47:41.792Z,5.18
2022-10-17T14:53:05.276Z,5.30
2022-10-17T14:58:29.175Z,5.28
2022-10-17T15:03:50.245Z,5.60
2022-10-17T15:09:11.613Z,6.05
2022-10-17T15:14:32.552Z,5.70
2022-10-17T15:19:54.545Z,5.78
2022-10-17T15:25:15.421Z,5.38
2022-10-17T15:30:37.158Z,5.15
2022-10-17T15:41:26.191Z,5.07
2022-10-17T15:46:47.199Z,4.90
2022-10-17T15:52:08.944Z,4.82
2022-10-17T15:57:34.184Z,4.72
2022-10-17T16:02:55.012Z,4.80
2022-10-17T16:08:15.796Z,5.00
2022-10-17T16:13:37.705Z,4.72
2022-10-17T16:18:59.311Z,4.55
2022-10-17T16:24:19.979Z,4.90
2022-10-17T16:29:40.845Z,4.22
2022-10-17T16:35:01.633Z,4.15
2022-10-17T16:40:22.912Z,4.75
2022-10-17T16:45:43.817Z,4.45
2022-10-17T16:51:04.599Z,4.32
2022-10-17T16:56:29.673Z,5.20
2022-10-17T17:01:50.973Z,4.72
2022-10-17T17:07:12.223Z,4.82
2022-10-17T17:12:36.934Z,5.03
2022-10-17T17:18:00.323Z,5.53
2022-10-17T17:23:23.432Z,6.30
2022-10-17T17:28:44.737Z,5.47
2022-10-17T17:34:06.008Z,5.00
2022-10-17T17:39:27.130Z,5.70
2022-10-17T17:44:49.230Z,5.65
2022-10-17T17:50:10.452Z,6.40
2022-10-17T17:55:31.105Z,6.10
2022-10-17T18:00:52.193Z,6.35
2022-10-17T18:06:13.483Z,6.03
2022-10-17T18:11:35.335Z,6.22
2022-10-17T18:16:56.402Z,6.63
2022-10-17T18:22:17.283Z,6.50
2022-10-17T18:27:38.308Z,5.80
2022-10-17T18:32:58.980Z,5.75
2022-10-17T18:38:19.868Z,6.18
2022-10-17T18:43:42.880Z,6.32
2022-10-17T18:49:04.194Z,6.25
2022-10-17T18:54:24.923Z,6.78
2022-10-17T18:59:45.822Z,6.22
2022-10-17T19:05:06.889Z,6.85
2022-10-17T19:10:28.054Z,6.47
2022-10-17T19:15:48.985Z,6.32
2022-10-17T19:21:11.974Z,6.50
2022-10-17T19:26:35.277Z,6.05
2022-10-17T19:37:22.030Z,6.25
2022-10-17T19:42:42.817Z,6.82
2022-10-17T19:48:03.897Z,6.45
2022-10-17T19:53:25.276Z,6.32
2022-10-17T19:58:47.650Z,6.47
2022-10-17T20:04:10.981Z,7.50
2022-10-17T20:09:31.854Z,6.47
2022-10-17T20:14:52.579Z,5.78
2022-10-17T20:20:13.841Z,6.20
2022-10-17T20:25:38.109Z,6.72
2022-10-17T20:30:58.914Z,6.38
2022-10-17T20:36:23.274Z,6.97
2022-10-17T20:41:45.150Z,7.28
2022-10-17T20:47:11.897Z,7.03
2022-10-17T20:52:36.978Z,6.15
2022-10-17T20:57:58.531Z,7.28
2022-10-17T21:03:19.605Z,7.22
2022-10-17T21:08:40.678Z,6.78
2022-10-17T21:14:05.219Z,6.68
2022-10-17T21:19:26.351Z,6.82
2022-10-17T21:24:47.407Z,6.93
2022-10-17T21:30:08.987Z,7.38
2022-10-17T21:35:30.204Z,7.15
2022-10-17T21:40:52.591Z,7.45
2022-10-17T21:46:18.185Z,7.43
2022-10-17T21:51:39.427Z,6.53
2022-10-17T21:57:00.862Z,7.53
